sensor_id;sensor_type;location;lat;lon;timestamp;P1;durP1;ratioP1;P2;durP2;ratioP2
61108;SDS011;46995;55.740;37.402;2023-03-07T00:01:35;3.85;;;2.20;;
61108;SDS011;46995;55.740;37.402;2023-03-07T00:04:02;5.25;;;2.38;;
61108;SDS011;46995;55.740;37.402;2023-03-07T00:06:28;5.72;;;2.25;;
61108;SDS011;46995;55.740;37.402;2023-03-07T00:08:55;5.65;;;2.20;;
61108;SDS011;46995;55.740;37.402;2023-03-07T00:11:23;3.92;;;1.80;;
61108;SDS011;46995;55.740;37.402;2023-03-07T00:13:49;5.18;;;2.30;;
61108;SDS011;46995;55.740;37.402;2023-03-07T00:16:15;5.75;;;2.00;;
61108;SDS011;46995;55.740;37.402;2023-03-07T00:18:43;4.22;;;2.28;;
61108;SDS011;46995;55.740;37.402;2023-03-07T00:21:10;4.18;;;2.47;;
61108;SDS011;46995;55.740;37.402;2023-03-07T00:23:39;5.32;;;2.15;;
61108;SDS011;46995;55.740;37.402;2023-03-07T00:26:12;8.38;;;2.05;;
61108;SDS011;46995;55.740;37.402;2023-03-07T00:28:45;4.40;;;2.22;;
61108;SDS011;46995;55.740;37.402;2023-03-07T00:31:12;6.00;;;2.42;;
61108;SDS011;46995;55.740;37.402;2023-03-07T00:33:39;3.95;;;2.30;;
61108;SDS011;46995;55.740;37.402;2023-03-07T00:36:12;3.28;;;1.75;;
61108;SDS011;46995;55.740;37.402;2023-03-07T00:38:39;4.68;;;2.00;;
61108;SDS011;46995;55.740;37.402;2023-03-07T00:41:11;5.30;;;2.00;;
61108;SDS011;46995;55.740;37.402;2023-03-07T00:43:39;5.18;;;2.38;;
61108;SDS011;46995;55.740;37.402;2023-03-07T00:46:05;5.50;;;2.37;;
61108;SDS011;46995;55.740;37.402;2023-03-07T00:48:33;4.97;;;2.38;;
61108;SDS011;46995;55.740;37.402;2023-03-07T00:51:00;3.22;;;2.08;;
61108;SDS011;46995;55.740;37.402;2023-03-07T00:53:26;4.75;;;2.17;;
61108;SDS011;46995;55.740;37.402;2023-03-07T00:55:54;3.97;;;1.90;;
61108;SDS011;46995;55.740;37.402;2023-03-07T00:58:20;5.17;;;2.13;;
61108;SDS011;46995;55.740;37.402;2023-03-07T01:00:47;5.93;;;1.90;;
61108;SDS011;46995;55.740;37.402;2023-03-07T01:03:14;5.18;;;2.53;;
61108;SDS011;46995;55.740;37.402;2023-03-07T01:05:40;4.28;;;2.30;;
61108;SDS011;46995;55.740;37.402;2023-03-07T01:08:06;6.70;;;2.10;;
61108;SDS011;46995;55.740;37.402;2023-03-07T01:10:32;4.25;;;2.28;;
61108;SDS011;46995;55.740;37.402;2023-03-07T01:12:58;4.18;;;2.10;;
61108;SDS011;46995;55.740;37.402;2023-03-07T01:15:25;5.03;;;2.28;;
61108;SDS011;46995;55.740;37.402;2023-03-07T01:17:53;5.68;;;2.17;;
61108;SDS011;46995;55.740;37.402;2023-03-07T01:20:19;4.97;;;2.13;;
61108;SDS011;46995;55.740;37.402;2023-03-07T01:22:45;3.80;;;1.65;;
61108;SDS011;46995;55.740;37.402;2023-03-07T01:25:11;7.88;;;2.50;;
61108;SDS011;46995;55.740;37.402;2023-03-07T01:30:04;6.35;;;2.20;;
61108;SDS011;46995;55.740;37.402;2023-03-07T01:32:33;2.85;;;1.75;;
61108;SDS011;46995;55.740;37.402;2023-03-07T01:34:59;5.00;;;2.10;;
61108;SDS011;46995;55.740;37.402;2023-03-07T01:37:26;7.55;;;2.20;;
61108;SDS011;46995;55.740;37.402;2023-03-07T01:39:53;3.67;;;2.17;;
61108;SDS011;46995;55.740;37.402;2023-03-07T01:42:20;3.67;;;1.90;;
61108;SDS011;46995;55.740;37.402;2023-03-07T01:47:34;4.53;;;2.00;;
61108;SDS011;46995;55.740;37.402;2023-03-07T01:50:01;4.13;;;2.00;;
61108;SDS011;46995;55.740;37.402;2023-03-07T01:52:35;3.78;;;2.10;;
61108;SDS011;46995;55.740;37.402;2023-03-07T01:55:16;4.07;;;2.40;;
61108;SDS011;46995;55.740;37.402;2023-03-07T01:57:48;3.45;;;2.25;;
61108;SDS011;46995;55.740;37.402;2023-03-07T02:00:16;4.60;;;2.25;;
61108;SDS011;46995;55.740;37.402;2023-03-07T02:05:36;3.40;;;1.80;;
61108;SDS011;46995;55.740;37.402;2023-03-07T02:08:06;4.45;;;2.15;;
61108;SDS011;46995;55.740;37.402;2023-03-07T02:10:33;7.00;;;1.83;;
61108;SDS011;46995;55.740;37.402;2023-03-07T02:13:00;4.95;;;2.17;;
61108;SDS011;46995;55.740;37.402;2023-03-07T02:15:27;5.63;;;2.60;;
61108;SDS011;46995;55.740;37.402;2023-03-07T02:17:53;5.18;;;1.90;;
61108;SDS011;46995;55.740;37.402;2023-03-07T02:22:58;7.32;;;2.60;;
61108;SDS011;46995;55.740;37.402;2023-03-07T02:28:01;4.15;;;2.15;;
61108;SDS011;46995;55.740;37.402;2023-03-07T02:30:30;4.75;;;2.15;;
61108;SDS011;46995;55.740;37.402;2023-03-07T02:32:56;4.43;;;2.30;;
61108;SDS011;46995;55.740;37.402;2023-03-07T02:35:24;5.10;;;2.10;;
61108;SDS011;46995;55.740;37.402;2023-03-07T02:37:54;7.55;;;2.50;;
61108;SDS011;46995;55.740;37.402;2023-03-07T02:40:25;3.65;;;2.03;;
61108;SDS011;46995;55.740;37.402;2023-03-07T02:42:54;4.80;;;2.22;;
61108;SDS011;46995;55.740;37.402;2023-03-07T02:45:24;6.07;;;2.53;;
61108;SDS011;46995;55.740;37.402;2023-03-07T02:47:50;5.43;;;2.13;;
61108;SDS011;46995;55.740;37.402;2023-03-07T02:50:17;5.33;;;2.67;;
61108;SDS011;46995;55.740;37.402;2023-03-07T02:52:46;6.75;;;2.63;;
61108;SDS011;46995;55.740;37.402;2023-03-07T02:55:13;5.95;;;2.40;;
61108;SDS011;46995;55.740;37.402;2023-03-07T02:57:46;4.82;;;2.13;;
61108;SDS011;46995;55.740;37.402;2023-03-07T03:00:12;4.15;;;2.13;;
61108;SDS011;46995;55.740;37.402;2023-03-07T03:02:39;8.98;;;2.97;;
61108;SDS011;46995;55.740;37.402;2023-03-07T03:05:06;4.78;;;2.40;;
61108;SDS011;46995;55.740;37.402;2023-03-07T03:07:32;5.00;;;2.30;;
61108;SDS011;46995;55.740;37.402;2023-03-07T03:10:00;6.15;;;2.20;;
61108;SDS011;46995;55.740;37.402;2023-03-07T03:12:29;6.57;;;2.78;;
61108;SDS011;46995;55.740;37.402;2023-03-07T03:14:56;5.18;;;2.38;;
61108;SDS011;46995;55.740;37.402;2023-03-07T03:17:22;4.72;;;2.42;;
61108;SDS011;46995;55.740;37.402;2023-03-07T03:19:48;6.93;;;2.53;;
61108;SDS011;46995;55.740;37.402;2023-03-07T03:22:15;5.38;;;2.55;;
61108;SDS011;46995;55.740;37.402;2023-03-07T03:24:45;9.00;;;2.85;;
61108;SDS011;46995;55.740;37.402;2023-03-07T03:27:15;4.55;;;2.42;;
61108;SDS011;46995;55.740;37.402;2023-03-07T03:29:43;7.68;;;2.60;;
61108;SDS011;46995;55.740;37.402;2023-03-07T03:32:10;4.13;;;2.47;;
61108;SDS011;46995;55.740;37.402;2023-03-07T03:34:36;6.80;;;2.55;;
61108;SDS011;46995;55.740;37.402;2023-03-07T03:37:02;4.18;;;2.47;;
61108;SDS011;46995;55.740;37.402;2023-03-07T03:39:29;9.50;;;2.83;;
61108;SDS011;46995;55.740;37.402;2023-03-07T03:41:59;7.53;;;2.42;;
61108;SDS011;46995;55.740;37.402;2023-03-07T03:44:25;5.77;;;2.50;;
61108;SDS011;46995;55.740;37.402;2023-03-07T03:46:54;5.95;;;2.70;;
61108;SDS011;46995;55.740;37.402;2023-03-07T03:49:22;7.03;;;2.53;;
61108;SDS011;46995;55.740;37.402;2023-03-07T03:51:50;7.95;;;3.33;;
61108;SDS011;46995;55.740;37.402;2023-03-07T03:54:16;6.63;;;3.03;;
61108;SDS011;46995;55.740;37.402;2023-03-07T03:56:42;4.75;;;2.70;;
61108;SDS011;46995;55.740;37.402;2023-03-07T03:59:08;6.78;;;2.95;;
61108;SDS011;46995;55.740;37.402;2023-03-07T04:01:34;10.07;;;3.42;;
61108;SDS011;46995;55.740;37.402;2023-03-07T04:04:00;9.15;;;3.28;;
61108;SDS011;46995;55.740;37.402;2023-03-07T04:06:28;14.07;;;4.18;;
61108;SDS011;46995;55.740;37.402;2023-03-07T04:08:57;7.45;;;2.80;;
61108;SDS011;46995;55.740;37.402;2023-03-07T04:11:24;7.93;;;3.17;;
61108;SDS011;46995;55.740;37.402;2023-03-07T04:13:51;8.52;;;3.55;;
61108;SDS011;46995;55.740;37.402;2023-03-07T04:16:18;9.32;;;4.10;;
61108;SDS011;46995;55.740;37.402;2023-03-07T04:18:47;10.52;;;3.72;;
61108;SDS011;46995;55.740;37.402;2023-03-07T04:21:14;5.43;;;3.05;;
61108;SDS011;46995;55.740;37.402;2023-03-07T04:23:41;7.60;;;3.77;;
61108;SDS011;46995;55.740;37.402;2023-03-07T04:26:08;7.25;;;3.70;;
61108;SDS011;46995;55.740;37.402;2023-03-07T04:28:40;8.50;;;3.28;;
61108;SDS011;46995;55.740;37.402;2023-03-07T04:31:48;10.93;;;2.90;;
61108;SDS011;46995;55.740;37.402;2023-03-07T04:34:15;9.55;;;3.30;;
61108;SDS011;46995;55.740;37.402;2023-03-07T04:36:40;7.38;;;3.30;;
61108;SDS011;46995;55.740;37.402;2023-03-07T04:39:07;6.30;;;3.55;;
61108;SDS011;46995;55.740;37.402;2023-03-07T04:41:34;7.55;;;3.47;;
61108;SDS011;46995;55.740;37.402;2023-03-07T04:44:07;10.23;;;3.97;;
61108;SDS011;46995;55.740;37.402;2023-03-07T04:46:39;8.85;;;3.55;;
61108;SDS011;46995;55.740;37.402;2023-03-07T04:49:05;8.88;;;3.90;;
61108;SDS011;46995;55.740;37.402;2023-03-07T04:51:31;7.47;;;3.35;;
61108;SDS011;46995;55.740;37.402;2023-03-07T04:54:00;8.43;;;3.80;;
61108;SDS011;46995;55.740;37.402;2023-03-07T04:56:33;10.93;;;3.88;;
61108;SDS011;46995;55.740;37.402;2023-03-07T04:59:02;8.70;;;3.88;;
61108;SDS011;46995;55.740;37.402;2023-03-07T05:01:28;9.13;;;4.10;;
61108;SDS011;46995;55.740;37.402;2023-03-07T05:03:58;7.38;;;3.83;;
61108;SDS011;46995;55.740;37.402;2023-03-07T05:06:24;9.70;;;3.72;;
61108;SDS011;46995;55.740;37.402;2023-03-07T05:08:51;10.88;;;3.58;;
61108;SDS011;46995;55.740;37.402;2023-03-07T05:11:17;10.95;;;3.58;;
61108;SDS011;46995;55.740;37.402;2023-03-07T05:13:47;5.82;;;3.45;;
61108;SDS011;46995;55.740;37.402;2023-03-07T05:16:16;17.13;;;8.30;;
61108;SDS011;46995;55.740;37.402;2023-03-07T05:18:42;10.57;;;5.10;;
61108;SDS011;46995;55.740;37.402;2023-03-07T05:21:08;9.10;;;3.72;;
61108;SDS011;46995;55.740;37.402;2023-03-07T05:23:35;8.18;;;3.85;;
61108;SDS011;46995;55.740;37.402;2023-03-07T05:26:01;9.50;;;4.10;;
61108;SDS011;46995;55.740;37.402;2023-03-07T05:28:27;12.23;;;4.03;;
61108;SDS011;46995;55.740;37.402;2023-03-07T05:30:53;12.00;;;3.88;;
61108;SDS011;46995;55.740;37.402;2023-03-07T05:33:20;8.70;;;3.80;;
61108;SDS011;46995;55.740;37.402;2023-03-07T05:38:15;10.93;;;3.97;;
61108;SDS011;46995;55.740;37.402;2023-03-07T05:40:41;14.32;;;4.03;;
61108;SDS011;46995;55.740;37.402;2023-03-07T05:43:09;6.35;;;3.38;;
61108;SDS011;46995;55.740;37.402;2023-03-07T05:45:35;7.80;;;4.22;;
61108;SDS011;46995;55.740;37.402;2023-03-07T05:48:01;7.97;;;4.23;;
61108;SDS011;46995;55.740;37.402;2023-03-07T05:50:28;11.05;;;3.85;;
61108;SDS011;46995;55.740;37.402;2023-03-07T05:52:55;6.53;;;3.55;;
61108;SDS011;46995;55.740;37.402;2023-03-07T05:55:24;10.02;;;3.88;;
61108;SDS011;46995;55.740;37.402;2023-03-07T05:57:50;7.88;;;3.90;;
61108;SDS011;46995;55.740;37.402;2023-03-07T06:00:16;9.07;;;4.13;;
61108;SDS011;46995;55.740;37.402;2023-03-07T06:02:50;9.98;;;4.55;;
61108;SDS011;46995;55.740;37.402;2023-03-07T06:05:17;6.10;;;3.65;;
61108;SDS011;46995;55.740;37.402;2023-03-07T06:07:45;8.65;;;4.35;;
61108;SDS011;46995;55.740;37.402;2023-03-07T06:10:13;13.73;;;4.68;;
61108;SDS011;46995;55.740;37.402;2023-03-07T06:12:51;11.55;;;4.55;;
61108;SDS011;46995;55.740;37.402;2023-03-07T06:15:18;7.93;;;4.03;;
61108;SDS011;46995;55.740;37.402;2023-03-07T06:17:47;10.48;;;4.25;;
61108;SDS011;46995;55.740;37.402;2023-03-07T06:20:13;13.63;;;4.50;;
61108;SDS011;46995;55.740;37.402;2023-03-07T06:25:07;14.88;;;5.10;;
61108;SDS011;46995;55.740;37.402;2023-03-07T06:27:34;13.50;;;3.97;;
61108;SDS011;46995;55.740;37.402;2023-03-07T06:30:03;10.88;;;4.43;;
61108;SDS011;46995;55.740;37.402;2023-03-07T06:32:30;11.98;;;4.43;;
61108;SDS011;46995;55.740;37.402;2023-03-07T06:34:57;10.07;;;5.35;;
61108;SDS011;46995;55.740;37.402;2023-03-07T06:37:26;9.38;;;4.55;;
61108;SDS011;46995;55.740;37.402;2023-03-07T06:39:52;10.97;;;4.37;;
61108;SDS011;46995;55.740;37.402;2023-03-07T06:42:18;11.45;;;4.82;;
61108;SDS011;46995;55.740;37.402;2023-03-07T06:44:45;12.35;;;4.70;;
61108;SDS011;46995;55.740;37.402;2023-03-07T06:47:10;10.52;;;4.93;;
61108;SDS011;46995;55.740;37.402;2023-03-07T06:49:37;10.60;;;4.65;;
61108;SDS011;46995;55.740;37.402;2023-03-07T06:52:03;10.75;;;4.97;;
61108;SDS011;46995;55.740;37.402;2023-03-07T06:54:30;10.35;;;4.55;;
61108;SDS011;46995;55.740;37.402;2023-03-07T06:56:57;13.07;;;5.00;;
61108;SDS011;46995;55.740;37.402;2023-03-07T06:59:23;9.75;;;5.03;;
61108;SDS011;46995;55.740;37.402;2023-03-07T07:01:49;8.93;;;4.72;;
61108;SDS011;46995;55.740;37.402;2023-03-07T07:04:17;11.27;;;5.25;;
61108;SDS011;46995;55.740;37.402;2023-03-07T07:06:43;12.13;;;5.10;;
61108;SDS011;46995;55.740;37.402;2023-03-07T07:09:11;11.85;;;4.80;;
61108;SDS011;46995;55.740;37.402;2023-03-07T07:11:38;8.15;;;4.43;;
61108;SDS011;46995;55.740;37.402;2023-03-07T07:14:08;10.60;;;5.40;;
61108;SDS011;46995;55.740;37.402;2023-03-07T07:16:35;9.38;;;4.43;;
61108;SDS011;46995;55.740;37.402;2023-03-07T07:19:03;12.75;;;4.55;;
61108;SDS011;46995;55.740;37.402;2023-03-07T07:23:56;10.10;;;5.20;;
61108;SDS011;46995;55.740;37.402;2023-03-07T07:26:24;12.20;;;5.37;;
61108;SDS011;46995;55.740;37.402;2023-03-07T07:28:50;10.00;;;5.30;;
61108;SDS011;46995;55.740;37.402;2023-03-07T07:31:16;9.30;;;5.35;;
61108;SDS011;46995;55.740;37.402;2023-03-07T07:33:42;14.20;;;5.72;;
61108;SDS011;46995;55.740;37.402;2023-03-07T07:36:08;10.95;;;5.80;;
61108;SDS011;46995;55.740;37.402;2023-03-07T07:38:35;11.60;;;5.57;;
61108;SDS011;46995;55.740;37.402;2023-03-07T07:41:01;11.18;;;5.75;;
61108;SDS011;46995;55.740;37.402;2023-03-07T07:43:27;10.30;;;4.97;;
61108;SDS011;46995;55.740;37.402;2023-03-07T07:46:06;12.75;;;5.15;;
61108;SDS011;46995;55.740;37.402;2023-03-07T07:48:32;11.40;;;5.05;;
61108;SDS011;46995;55.740;37.402;2023-03-07T07:50:59;13.70;;;5.10;;
61108;SDS011;46995;55.740;37.402;2023-03-07T07:53:27;12.63;;;5.43;;
61108;SDS011;46995;55.740;37.402;2023-03-07T07:55:52;12.95;;;5.32;;
61108;SDS011;46995;55.740;37.402;2023-03-07T07:58:19;12.77;;;5.38;;
61108;SDS011;46995;55.740;37.402;2023-03-07T08:00:45;10.73;;;4.83;;
61108;SDS011;46995;55.740;37.402;2023-03-07T08:03:11;13.63;;;5.47;;
61108;SDS011;46995;55.740;37.402;2023-03-07T08:05:37;13.77;;;5.40;;
61108;SDS011;46995;55.740;37.402;2023-03-07T08:08:08;13.00;;;5.45;;
61108;SDS011;46995;55.740;37.402;2023-03-07T08:10:34;18.52;;;5.75;;
61108;SDS011;46995;55.740;37.402;2023-03-07T08:12:59;13.02;;;5.95;;
61108;SDS011;46995;55.740;37.402;2023-03-07T08:15:27;11.57;;;5.50;;
61108;SDS011;46995;55.740;37.402;2023-03-07T08:17:52;16.35;;;6.47;;
61108;SDS011;46995;55.740;37.402;2023-03-07T08:20:18;13.38;;;5.93;;
61108;SDS011;46995;55.740;37.402;2023-03-07T08:22:47;12.73;;;5.72;;
61108;SDS011;46995;55.740;37.402;2023-03-07T08:25:17;11.80;;;5.28;;
61108;SDS011;46995;55.740;37.402;2023-03-07T08:27:46;16.92;;;5.80;;
61108;SDS011;46995;55.740;37.402;2023-03-07T08:30:13;10.93;;;5.57;;
61108;SDS011;46995;55.740;37.402;2023-03-07T08:32:39;11.40;;;5.72;;
61108;SDS011;46995;55.740;37.402;2023-03-07T08:35:05;9.35;;;4.72;;
61108;SDS011;46995;55.740;37.402;2023-03-07T08:37:31;10.45;;;5.20;;
61108;SDS011;46995;55.740;37.402;2023-03-07T08:39:57;10.57;;;5.85;;
61108;SDS011;46995;55.740;37.402;2023-03-07T08:42:23;12.02;;;5.32;;
61108;SDS011;46995;55.740;37.402;2023-03-07T08:44:49;11.00;;;5.20;;
61108;SDS011;46995;55.740;37.402;2023-03-07T08:47:14;11.55;;;5.68;;
61108;SDS011;46995;55.740;37.402;2023-03-07T08:49:41;11.05;;;4.95;;
61108;SDS011;46995;55.740;37.402;2023-03-07T08:52:07;14.23;;;6.72;;
61108;SDS011;46995;55.740;37.402;2023-03-07T08:54:33;13.75;;;6.10;;
61108;SDS011;46995;55.740;37.402;2023-03-07T08:56:59;13.85;;;5.80;;
61108;SDS011;46995;55.740;37.402;2023-03-07T08:59:25;11.73;;;5.57;;
61108;SDS011;46995;55.740;37.402;2023-03-07T09:01:51;13.15;;;6.18;;
61108;SDS011;46995;55.740;37.402;2023-03-07T09:04:16;13.63;;;6.20;;
61108;SDS011;46995;55.740;37.402;2023-03-07T09:06:42;12.70;;;5.95;;
61108;SDS011;46995;55.740;37.402;2023-03-07T09:09:08;12.60;;;6.10;;
61108;SDS011;46995;55.740;37.402;2023-03-07T09:11:34;13.13;;;5.90;;
61108;SDS011;46995;55.740;37.402;2023-03-07T09:13:59;12.85;;;5.72;;
61108;SDS011;46995;55.740;37.402;2023-03-07T09:16:25;12.27;;;5.68;;
61108;SDS011;46995;55.740;37.402;2023-03-07T09:18:51;12.02;;;6.15;;
61108;SDS011;46995;55.740;37.402;2023-03-07T09:21:20;19.30;;;5.75;;
61108;SDS011;46995;55.740;37.402;2023-03-07T09:23:46;17.38;;;5.82;;
61108;SDS011;46995;55.740;37.402;2023-03-07T09:26:12;12.55;;;5.75;;
61108;SDS011;46995;55.740;37.402;2023-03-07T09:28:38;16.35;;;5.93;;
61108;SDS011;46995;55.740;37.402;2023-03-07T09:31:08;13.30;;;5.40;;
61108;SDS011;46995;55.740;37.402;2023-03-07T09:33:35;15.18;;;5.82;;
61108;SDS011;46995;55.740;37.402;2023-03-07T09:36:05;12.27;;;5.78;;
61108;SDS011;46995;55.740;37.402;2023-03-07T09:38:31;10.93;;;5.88;;
61108;SDS011;46995;55.740;37.402;2023-03-07T09:41:07;14.75;;;5.38;;
61108;SDS011;46995;55.740;37.402;2023-03-07T09:43:43;11.30;;;6.50;;
61108;SDS011;46995;55.740;37.402;2023-03-07T09:49:56;15.07;;;5.78;;
61108;SDS011;46995;55.740;37.402;2023-03-07T09:52:28;16.08;;;6.28;;
61108;SDS011;46995;55.740;37.402;2023-03-07T09:55:05;10.05;;;5.63;;
61108;SDS011;46995;55.740;37.402;2023-03-07T09:57:40;16.27;;;6.35;;
61108;SDS011;46995;55.740;37.402;2023-03-07T10:05:48;10.73;;;5.20;;
61108;SDS011;46995;55.740;37.402;2023-03-07T10:08:16;13.93;;;5.32;;
61108;SDS011;46995;55.740;37.402;2023-03-07T10:10:52;13.40;;;5.80;;
61108;SDS011;46995;55.740;37.402;2023-03-07T10:16:25;11.48;;;5.72;;
61108;SDS011;46995;55.740;37.402;2023-03-07T10:19:30;12.75;;;5.47;;
61108;SDS011;46995;55.740;37.402;2023-03-07T10:27:12;14.07;;;5.70;;
61108;SDS011;46995;55.740;37.402;2023-03-07T10:29:43;14.03;;;5.90;;
61108;SDS011;46995;55.740;37.402;2023-03-07T10:34:53;13.52;;;5.80;;
61108;SDS011;46995;55.740;37.402;2023-03-07T10:42:51;12.55;;;5.57;;
61108;SDS011;46995;55.740;37.402;2023-03-07T10:45:18;11.07;;;5.20;;
61108;SDS011;46995;55.740;37.402;2023-03-07T10:47:45;13.45;;;5.95;;
61108;SDS011;46995;55.740;37.402;2023-03-07T10:52:56;13.45;;;5.95;;
61108;SDS011;46995;55.740;37.402;2023-03-07T10:55:43;10.32;;;5.78;;
61108;SDS011;46995;55.740;37.402;2023-03-07T11:03:25;11.75;;;5.13;;
61108;SDS011;46995;55.740;37.402;2023-03-07T11:06:04;12.45;;;5.20;;
61108;SDS011;46995;55.740;37.402;2023-03-07T11:08:50;13.20;;;5.75;;
61108;SDS011;46995;55.740;37.402;2023-03-07T11:11:24;9.35;;;4.53;;
61108;SDS011;46995;55.740;37.402;2023-03-07T11:14:05;11.48;;;4.93;;
61108;SDS011;46995;55.740;37.402;2023-03-07T11:22:04;9.15;;;4.80;;
61108;SDS011;46995;55.740;37.402;2023-03-07T11:24:53;9.93;;;4.40;;
61108;SDS011;46995;55.740;37.402;2023-03-07T11:27:33;12.80;;;5.05;;
61108;SDS011;46995;55.740;37.402;2023-03-07T11:32:45;11.93;;;4.97;;
61108;SDS011;46995;55.740;37.402;2023-03-07T11:35:20;12.57;;;5.00;;
61108;SDS011;46995;55.740;37.402;2023-03-07T11:38:16;9.23;;;4.95;;
61108;SDS011;46995;55.740;37.402;2023-03-07T11:41:07;10.85;;;5.20;;
61108;SDS011;46995;55.740;37.402;2023-03-07T11:43:45;10.32;;;5.20;;
61108;SDS011;46995;55.740;37.402;2023-03-07T11:54:41;9.43;;;4.68;;
61108;SDS011;46995;55.740;37.402;2023-03-07T12:11:22;12.43;;;6.82;;
61108;SDS011;46995;55.740;37.402;2023-03-07T12:17:23;10.88;;;5.80;;
61108;SDS011;46995;55.740;37.402;2023-03-07T12:23:06;10.45;;;5.07;;
61108;SDS011;46995;55.740;37.402;2023-03-07T12:33:55;13.20;;;4.93;;
61108;SDS011;46995;55.740;37.402;2023-03-07T12:36:38;10.38;;;4.63;;
61108;SDS011;46995;55.740;37.402;2023-03-07T12:39:31;9.65;;;4.43;;
61108;SDS011;46995;55.740;37.402;2023-03-07T12:45:16;10.48;;;4.63;;
61108;SDS011;46995;55.740;37.402;2023-03-07T12:53:40;9.32;;;4.20;;
61108;SDS011;46995;55.740;37.402;2023-03-07T12:56:19;10.05;;;4.43;;
61108;SDS011;46995;55.740;37.402;2023-03-07T12:59:10;11.95;;;5.13;;
61108;SDS011;46995;55.740;37.402;2023-03-07T13:02:11;13.27;;;5.20;;
61108;SDS011;46995;55.740;37.402;2023-03-07T13:04:36;9.10;;;4.75;;
61108;SDS011;46995;55.740;37.402;2023-03-07T13:09:52;10.35;;;4.47;;
61108;SDS011;46995;55.740;37.402;2023-03-07T13:12:23;8.93;;;4.47;;
61108;SDS011;46995;55.740;37.402;2023-03-07T13:14:58;9.88;;;4.72;;
61108;SDS011;46995;55.740;37.402;2023-03-07T13:20:00;9.35;;;4.05;;
61108;SDS011;46995;55.740;37.402;2023-03-07T13:24:53;12.60;;;4.32;;
61108;SDS011;46995;55.740;37.402;2023-03-07T13:27:25;8.88;;;4.32;;
61108;SDS011;46995;55.740;37.402;2023-03-07T13:41:10;9.48;;;4.20;;
61108;SDS011;46995;55.740;37.402;2023-03-07T13:49:06;9.55;;;3.78;;
61108;SDS011;46995;55.740;37.402;2023-03-07T13:51:33;10.30;;;4.30;;
61108;SDS011;46995;55.740;37.402;2023-03-07T13:54:03;9.57;;;3.63;;
61108;SDS011;46995;55.740;37.402;2023-03-07T13:56:40;7.88;;;3.97;;
61108;SDS011;46995;55.740;37.402;2023-03-07T14:01:53;8.85;;;3.85;;
61108;SDS011;46995;55.740;37.402;2023-03-07T14:07:00;7.72;;;3.88;;
61108;SDS011;46995;55.740;37.402;2023-03-07T14:09:39;8.95;;;4.63;;
61108;SDS011;46995;55.740;37.402;2023-03-07T14:12:32;7.30;;;3.95;;
61108;SDS011;46995;55.740;37.402;2023-03-07T14:15:25;7.80;;;3.92;;
61108;SDS011;46995;55.740;37.402;2023-03-07T14:28:48;11.20;;;4.10;;
61108;SDS011;46995;55.740;37.402;2023-03-07T14:31:28;16.20;;;4.05;;
61108;SDS011;46995;55.740;37.402;2023-03-07T14:34:00;11.48;;;4.93;;
61108;SDS011;46995;55.740;37.402;2023-03-07T14:36:39;14.18;;;4.65;;
61108;SDS011;46995;55.740;37.402;2023-03-07T14:39:09;10.88;;;4.60;;
61108;SDS011;46995;55.740;37.402;2023-03-07T14:56:01;11.80;;;5.60;;
61108;SDS011;46995;55.740;37.402;2023-03-07T14:58:36;11.15;;;5.05;;
61108;SDS011;46995;55.740;37.402;2023-03-07T15:01:13;10.88;;;5.10;;
61108;SDS011;46995;55.740;37.402;2023-03-07T15:03:49;11.35;;;4.95;;
61108;SDS011;46995;55.740;37.402;2023-03-07T15:06:20;13.85;;;4.85;;
61108;SDS011;46995;55.740;37.402;2023-03-07T15:08:48;11.05;;;5.05;;
61108;SDS011;46995;55.740;37.402;2023-03-07T15:11:36;12.85;;;4.40;;
61108;SDS011;46995;55.740;37.402;2023-03-07T15:14:15;7.32;;;4.57;;
61108;SDS011;46995;55.740;37.402;2023-03-07T15:16:49;9.02;;;4.97;;
61108;SDS011;46995;55.740;37.402;2023-03-07T15:19:24;8.68;;;5.22;;
61108;SDS011;46995;55.740;37.402;2023-03-07T15:21:56;12.02;;;5.32;;
61108;SDS011;46995;55.740;37.402;2023-03-07T15:24:28;8.52;;;4.90;;
61108;SDS011;46995;55.740;37.402;2023-03-07T15:26:58;13.98;;;5.55;;
61108;SDS011;46995;55.740;37.402;2023-03-07T15:29:27;10.68;;;5.13;;
61108;SDS011;46995;55.740;37.402;2023-03-07T15:31:56;15.35;;;5.30;;
61108;SDS011;46995;55.740;37.402;2023-03-07T15:34:29;8.25;;;4.60;;
61108;SDS011;46995;55.740;37.402;2023-03-07T15:37:18;8.93;;;4.43;;
61108;SDS011;46995;55.740;37.402;2023-03-07T15:40:13;10.50;;;4.55;;
61108;SDS011;46995;55.740;37.402;2023-03-07T15:42:56;9.88;;;4.22;;
61108;SDS011;46995;55.740;37.402;2023-03-07T15:45:40;9.68;;;3.67;;
61108;SDS011;46995;55.740;37.402;2023-03-07T15:48:17;8.15;;;4.10;;
61108;SDS011;46995;55.740;37.402;2023-03-07T15:51:13;8.70;;;5.03;;
61108;SDS011;46995;55.740;37.402;2023-03-07T15:53:42;13.43;;;4.97;;
61108;SDS011;46995;55.740;37.402;2023-03-07T15:56:22;8.85;;;4.28;;
61108;SDS011;46995;55.740;37.402;2023-03-07T15:59:05;8.57;;;4.50;;
61108;SDS011;46995;55.740;37.402;2023-03-07T16:01:46;11.75;;;4.82;;
61108;SDS011;46995;55.740;37.402;2023-03-07T16:04:27;7.13;;;4.38;;
61108;SDS011;46995;55.740;37.402;2023-03-07T16:07:04;10.45;;;4.10;;
61108;SDS011;46995;55.740;37.402;2023-03-07T16:09:34;8.10;;;4.53;;
61108;SDS011;46995;55.740;37.402;2023-03-07T16:12:00;10.57;;;4.72;;
61108;SDS011;46995;55.740;37.402;2023-03-07T16:14:30;8.18;;;4.22;;
61108;SDS011;46995;55.740;37.402;2023-03-07T16:17:16;11.35;;;4.25;;
61108;SDS011;46995;55.740;37.402;2023-03-07T16:19:45;6.93;;;4.40;;
61108;SDS011;46995;55.740;37.402;2023-03-07T16:22:29;10.70;;;4.90;;
61108;SDS011;46995;55.740;37.402;2023-03-07T16:24:56;10.23;;;5.10;;
61108;SDS011;46995;55.740;37.402;2023-03-07T16:27:22;11.57;;;4.35;;
61108;SDS011;46995;55.740;37.402;2023-03-07T16:29:51;9.02;;;4.80;;
61108;SDS011;46995;55.740;37.402;2023-03-07T16:32:21;15.70;;;5.28;;
61108;SDS011;46995;55.740;37.402;2023-03-07T16:34:47;9.50;;;4.63;;
61108;SDS011;46995;55.740;37.402;2023-03-07T16:37:13;11.25;;;5.68;;
61108;SDS011;46995;55.740;37.402;2023-03-07T16:39:39;12.55;;;5.90;;
61108;SDS011;46995;55.740;37.402;2023-03-07T16:44:58;12.35;;;6.18;;
61108;SDS011;46995;55.740;37.402;2023-03-07T16:47:28;12.00;;;5.63;;
61108;SDS011;46995;55.740;37.402;2023-03-07T16:49:55;10.03;;;4.90;;
61108;SDS011;46995;55.740;37.402;2023-03-07T16:52:23;9.57;;;4.60;;
61108;SDS011;46995;55.740;37.402;2023-03-07T16:54:51;10.18;;;4.47;;
61108;SDS011;46995;55.740;37.402;2023-03-07T16:57:17;11.15;;;4.53;;
61108;SDS011;46995;55.740;37.402;2023-03-07T16:59:45;9.05;;;4.50;;
61108;SDS011;46995;55.740;37.402;2023-03-07T17:02:18;9.32;;;4.32;;
61108;SDS011;46995;55.740;37.402;2023-03-07T17:04:45;9.43;;;4.60;;
61108;SDS011;46995;55.740;37.402;2023-03-07T17:07:20;9.43;;;5.18;;
61108;SDS011;46995;55.740;37.402;2023-03-07T17:09:47;12.20;;;4.40;;
61108;SDS011;46995;55.740;37.402;2023-03-07T17:12:14;11.35;;;5.55;;
61108;SDS011;46995;55.740;37.402;2023-03-07T17:14:44;12.90;;;6.03;;
61108;SDS011;46995;55.740;37.402;2023-03-07T17:17:16;9.07;;;5.60;;
61108;SDS011;46995;55.740;37.402;2023-03-07T17:19:44;13.55;;;5.25;;
61108;SDS011;46995;55.740;37.402;2023-03-07T17:22:10;15.80;;;6.20;;
61108;SDS011;46995;55.740;37.402;2023-03-07T17:24:36;16.08;;;7.05;;
61108;SDS011;46995;55.740;37.402;2023-03-07T17:27:11;13.43;;;5.63;;
61108;SDS011;46995;55.740;37.402;2023-03-07T17:32:18;12.10;;;6.10;;
61108;SDS011;46995;55.740;37.402;2023-03-07T17:34:47;10.35;;;6.00;;